Time;durP1;ratioP1;P1;durP2;ratioP2;P2;SDS_P1;SDS_P2;PMS_P1;PMS_P2;Temp;Humidity;BMP_temperature;BMP_pressure;BME280_temperature;BME280_humidity;BME280_pressure;Samples;Min_cycle;Max_cycle;Signal;HPM_P1;HPM_P2
2022/02/20 00:01:31;;;;;;;3.03;0.88;;;;;;;;;;5013329;28;20103;-70
2022/02/20 00:03:59;;;;;;;3.33;0.90;;;;;;;;;;5012538;28;20468;-70
2022/02/20 00:06:25;;;;;;;2.58;1.35;;;;;;;;;;5012717;28;20018;-71
2022/02/20 00:08:51;;;;;;;5.35;1.35;;;;;;;;;;5012933;28;20029;-71
2022/02/20 00:11:16;;;;;;;1.85;0.80;;;;;;;;;;5012877;28;20022;-70
2022/02/20 00:13:43;;;;;;;2.53;0.70;;;;;;;;;;5012643;28;20026;-70
2022/02/20 00:16:09;;;;;;;6.72;1.13;;;;;;;;;;5012748;28;20030;-70
2022/02/20 00:18:35;;;;;;;4.95;1.10;;;;;;;;;;5012879;28;20029;-70
2022/02/20 00:21:01;;;;;;;2.65;0.80;;;;;;;;;;5011580;28;20030;-70
2022/02/20 00:23:27;;;;;;;3.00;0.70;;;;;;;;;;5011992;28;20400;-70
2022/02/20 00:25:53;;;;;;;3.42;0.85;;;;;;;;;;5012697;28;20084;-70
2022/02/20 00:28:19;;;;;;;4.30;0.88;;;;;;;;;;5011301;28;20020;-71
2022/02/20 00:30:45;;;;;;;5.85;0.90;;;;;;;;;;5012406;28;20026;-70
2022/02/20 00:33:12;;;;;;;4.90;1.10;;;;;;;;;;5010443;28;20022;-70
2022/02/20 00:35:38;;;;;;;6.93;1.15;;;;;;;;;;5012425;28;20109;-70
2022/02/20 00:38:04;;;;;;;4.00;0.77;;;;;;;;;;5012879;28;20054;-70
2022/02/20 00:40:31;;;;;;;4.28;1.00;;;;;;;;;;5012620;28;20030;-70
2022/02/20 00:42:57;;;;;;;4.60;1.10;;;;;;;;;;5011846;28;20476;-70
2022/02/20 00:45:23;;;;;;;4.80;1.50;;;;;;;;;;5011475;28;20376;-70
2022/02/20 00:47:49;;;;;;;7.30;0.70;;;;;;;;;;5012455;28;20041;-70
2022/02/20 00:50:15;;;;;;;3.72;1.08;;;;;;;;;;5012150;28;20032;-70
2022/02/20 00:52:41;;;;;;;3.67;1.15;;;;;;;;;;5011931;28;20075;-69
2022/02/20 00:55:08;;;;;;;3.45;0.82;;;;;;;;;;5011689;28;20057;-69
2022/02/20 00:57:33;;;;;;;3.63;0.93;;;;;;;;;;5012397;28;20121;-70
2022/02/20 00:59:59;;;;;;;6.43;1.63;;;;;;;;;;5012207;28;20066;-70
2022/02/20 01:02:25;;;;;;;2.70;0.90;;;;;;;;;;5012114;28;20084;-72
2022/02/20 01:04:52;;;;;;;6.78;1.20;;;;;;;;;;5011278;28;20563;-70
2022/02/20 01:07:22;;;;;;;3.88;1.10;;;;;;;;;;5012100;28;20093;-69
2022/02/20 01:09:47;;;;;;;4.90;1.45;;;;;;;;;;5012308;28;20109;-70
2022/02/20 01:12:13;;;;;;;7.72;1.23;;;;;;;;;;5012087;28;20061;-70
2022/02/20 01:14:39;;;;;;;7.43;1.70;;;;;;;;;;5010997;28;20026;-71
2022/02/20 01:17:06;;;;;;;2.78;1.25;;;;;;;;;;5012112;28;20034;-70
2022/02/20 01:19:32;;;;;;;5.90;1.08;;;;;;;;;;5010722;28;20072;-70
2022/02/20 01:21:58;;;;;;;5.43;1.30;;;;;;;;;;5011951;28;20030;-69
2022/02/20 01:24:24;;;;;;;3.35;1.38;;;;;;;;;;5011302;28;20088;-70
2022/02/20 01:26:50;;;;;;;5.72;1.20;;;;;;;;;;5011776;28;20033;-70
2022/02/20 01:29:17;;;;;;;4.85;1.35;;;;;;;;;;5012120;28;20037;-70
2022/02/20 01:31:43;;;;;;;9.20;1.27;;;;;;;;;;5011961;28;20038;-71
2022/02/20 01:34:09;;;;;;;7.25;1.50;;;;;;;;;;5011285;28;20511;-70
2022/02/20 01:36:35;;;;;;;2.78;1.42;;;;;;;;;;5010613;28;20029;-70
2022/02/20 01:39:01;;;;;;;7.80;1.50;;;;;;;;;;5012120;28;20037;-70
2022/02/20 01:41:27;;;;;;;4.22;0.80;;;;;;;;;;5012297;28;20475;-70
2022/02/20 01:43:54;;;;;;;6.82;1.15;;;;;;;;;;5011397;28;20041;-70
2022/02/20 01:46:20;;;;;;;3.10;0.95;;;;;;;;;;5011741;28;20480;-70
2022/02/20 01:48:46;;;;;;;5.72;0.77;;;;;;;;;;5012186;28;20513;-70
2022/02/20 01:51:12;;;;;;;5.00;1.10;;;;;;;;;;5011696;28;20136;-71
2022/02/20 01:53:38;;;;;;;3.13;1.10;;;;;;;;;;5010880;28;20112;-70
2022/02/20 01:56:04;;;;;;;6.35;1.45;;;;;;;;;;5012745;28;20030;-70
2022/02/20 01:58:30;;;;;;;2.60;1.02;;;;;;;;;;5015419;28;20543;-70
2022/02/20 02:00:56;;;;;;;5.80;1.40;;;;;;;;;;5015174;28;20037;-70
2022/02/20 02:03:22;;;;;;;2.08;1.10;;;;;;;;;;5014438;28;20021;-70
2022/02/20 02:05:48;;;;;;;4.38;1.30;;;;;;;;;;5015210;28;20061;-70
2022/02/20 02:08:18;;;;;;;2.92;1.23;;;;;;;;;;5015100;28;20030;-70
2022/02/20 02:10:44;;;;;;;2.25;0.65;;;;;;;;;;5015149;28;20100;-71
2022/02/20 02:13:10;;;;;;;2.38;0.90;;;;;;;;;;5014472;28;20026;-70
2022/02/20 02:15:47;;;;;;;2.05;0.90;;;;;;;;;;5014972;28;20049;-70
2022/02/20 02:18:13;;;;;;;3.33;1.10;;;;;;;;;;5013664;28;20022;-71
2022/02/20 02:20:39;;;;;;;4.55;1.08;;;;;;;;;;5013868;28;20025;-70
2022/02/20 02:23:05;;;;;;;4.45;1.77;;;;;;;;;;5013123;28;20034;-70
2022/02/20 02:25:31;;;;;;;3.63;1.83;;;;;;;;;;5014772;28;20032;-70
2022/02/20 02:27:57;;;;;;;3.13;1.17;;;;;;;;;;5015067;28;20141;-70
2022/02/20 02:30:23;;;;;;;3.45;1.10;;;;;;;;;;5013397;28;20492;-69
2022/02/20 02:32:49;;;;;;;3.08;1.00;;;;;;;;;;5012810;28;20464;-71
2022/02/20 02:35:15;;;;;;;5.50;1.30;;;;;;;;;;5014363;28;20029;-69
2022/02/20 02:37:41;;;;;;;2.17;0.70;;;;;;;;;;5014479;28;20072;-69
2022/02/20 02:40:08;;;;;;;3.13;1.00;;;;;;;;;;5013153;28;20487;-71
2022/02/20 02:42:33;;;;;;;2.63;1.08;;;;;;;;;;5014463;28;20065;-70
2022/02/20 02:44:59;;;;;;;3.03;0.98;;;;;;;;;;5013722;28;20069;-70
2022/02/20 02:47:25;;;;;;;2.00;1.02;;;;;;;;;;5013289;28;20034;-69
2022/02/20 02:49:51;;;;;;;3.92;1.13;;;;;;;;;;5014405;28;20045;-70
2022/02/20 02:52:17;;;;;;;4.25;1.10;;;;;;;;;;5014426;28;20029;-70
2022/02/20 02:54:43;;;;;;;5.25;1.17;;;;;;;;;;5036620;22;20034;-72
2022/02/20 02:57:09;;;;;;;2.00;0.70;;;;;;;;;;5014314;28;20045;-72
2022/02/20 02:59:35;;;;;;;5.18;0.57;;;;;;;;;;5014070;28;20503;-73
2022/02/20 03:02:04;;;;;;;5.05;0.77;;;;;;;;;;5014270;28;20030;-73
2022/02/20 03:04:30;;;;;;;1.92;1.05;;;;;;;;;;5011892;28;20030;-73
2022/02/20 03:06:56;;;;;;;1.08;0.50;;;;;;;;;;5012332;28;20030;-72
2022/02/20 03:09:22;;;;;;;4.30;0.70;;;;;;;;;;5013277;28;20092;-73
2022/02/20 03:11:48;;;;;;;3.13;0.57;;;;;;;;;;5013862;28;20416;-73
2022/02/20 03:14:14;;;;;;;2.75;0.70;;;;;;;;;;5012202;28;20077;-73
2022/02/20 03:16:41;;;;;;;2.08;0.70;;;;;;;;;;5013835;28;20120;-73
2022/02/20 03:19:08;;;;;;;1.65;0.40;;;;;;;;;;5014019;28;20112;-73
2022/02/20 03:21:34;;;;;;;1.83;0.98;;;;;;;;;;5012618;28;20513;-73
2022/02/20 03:24:00;;;;;;;1.48;0.40;;;;;;;;;;5011727;28;20132;-72
2022/02/20 03:26:26;;;;;;;1.25;0.80;;;;;;;;;;5012361;28;20117;-73
2022/02/20 03:28:52;;;;;;;2.42;0.80;;;;;;;;;;5013772;28;20034;-74
2022/02/20 03:31:18;;;;;;;2.75;0.65;;;;;;;;;;5013406;28;20026;-73
2022/02/20 03:33:44;;;;;;;2.35;0.85;;;;;;;;;;5013207;28;20030;-73
2022/02/20 03:36:10;;;;;;;3.10;0.70;;;;;;;;;;5013169;28;20050;-73
2022/02/20 03:38:37;;;;;;;1.52;0.68;;;;;;;;;;5013287;28;20021;-73
2022/02/20 03:41:03;;;;;;;2.05;0.70;;;;;;;;;;5013215;28;20388;-72
2022/02/20 03:43:29;;;;;;;4.10;0.90;;;;;;;;;;5012644;28;20018;-71
2022/02/20 03:45:55;;;;;;;1.17;0.73;;;;;;;;;;5013405;28;20442;-72
2022/02/20 03:48:21;;;;;;;1.77;0.98;;;;;;;;;;5013212;28;20428;-72
2022/02/20 03:50:48;;;;;;;3.67;0.85;;;;;;;;;;5013134;28;20036;-72
2022/02/20 03:53:14;;;;;;;1.85;0.73;;;;;;;;;;5012530;28;20539;-72
2022/02/20 03:55:40;;;;;;;0.95;0.65;;;;;;;;;;5011575;28;20037;-72
2022/02/20 03:58:06;;;;;;;4.60;0.80;;;;;;;;;;5013039;28;20076;-72
2022/02/20 04:00:32;;;;;;;1.38;0.75;;;;;;;;;;5012841;28;20030;-72
2022/02/20 04:02:58;;;;;;;5.05;0.88;;;;;;;;;;5012367;28;20030;-72
2022/02/20 04:05:24;;;;;;;4.28;0.70;;;;;;;;;;5012536;28;20022;-71
2022/02/20 04:07:50;;;;;;;1.77;0.80;;;;;;;;;;5012824;28;20056;-72
2022/02/20 04:10:16;;;;;;;3.15;0.63;;;;;;;;;;5013002;28;20026;-73
2022/02/20 04:12:42;;;;;;;2.65;0.73;;;;;;;;;;5012533;28;20021;-71
2022/02/20 04:15:10;;;;;;;1.77;0.70;;;;;;;;;;5012253;28;20103;-72
2022/02/20 04:17:54;;;;;;;7.55;1.38;;;;;;;;;;5012835;28;20056;-72
2022/02/20 04:20:21;;;;;;;4.30;1.30;;;;;;;;;;5012732;28;20017;-73
2022/02/20 04:22:47;;;;;;;2.03;1.00;;;;;;;;;;5012193;28;20029;-71
2022/02/20 04:25:13;;;;;;;3.53;0.95;;;;;;;;;;5012474;28;20041;-72
2022/02/20 04:27:39;;;;;;;7.47;2.28;;;;;;;;;;5012509;28;20037;-72
2022/02/20 04:30:07;;;;;;;3.88;1.50;;;;;;;;;;5012310;28;20379;-72
2022/02/20 04:32:33;;;;;;;7.90;1.13;;;;;;;;;;5011098;28;20032;-73
2022/02/20 04:34:59;;;;;;;1.67;1.00;;;;;;;;;;5011921;28;20439;-72
2022/02/20 04:37:25;;;;;;;2.40;0.88;;;;;;;;;;5012589;28;20396;-73
2022/02/20 04:39:51;;;;;;;3.78;1.17;;;;;;;;;;5011141;28;20456;-72
2022/02/20 04:42:17;;;;;;;3.75;1.40;;;;;;;;;;5012423;28;20116;-72
2022/02/20 04:44:43;;;;;;;4.78;1.10;;;;;;;;;;5011443;28;20036;-73
2022/02/20 04:47:09;;;;;;;8.80;1.88;;;;;;;;;;5012270;28;20033;-73
2022/02/20 04:49:35;;;;;;;2.95;1.08;;;;;;;;;;5012764;28;20021;-73
2022/02/20 04:52:02;;;;;;;6.82;1.33;;;;;;;;;;5012379;28;20026;-73
2022/02/20 04:54:27;;;;;;;3.67;1.08;;;;;;;;;;5011959;28;20029;-72
2022/02/20 04:56:54;;;;;;;5.15;0.90;;;;;;;;;;5010806;28;20033;-72
2022/02/20 04:59:21;;;;;;;3.50;1.08;;;;;;;;;;5012115;28;20407;-72
2022/02/20 05:01:47;;;;;;;2.55;0.82;;;;;;;;;;5012597;28;20493;-73
2022/02/20 05:04:13;;;;;;;3.95;1.00;;;;;;;;;;5012384;28;20097;-72
2022/02/20 05:06:39;;;;;;;2.35;1.00;;;;;;;;;;5012431;28;20030;-73
2022/02/20 05:09:05;;;;;;;5.07;1.27;;;;;;;;;;5012541;28;20022;-72
2022/02/20 05:11:31;;;;;;;9.10;1.95;;;;;;;;;;5012839;28;20026;-73
2022/02/20 05:13:58;;;;;;;3.85;1.35;;;;;;;;;;5011155;28;20022;-73
2022/02/20 05:16:25;;;;;;;1.40;0.88;;;;;;;;;;5011818;28;20099;-72
2022/02/20 05:18:51;;;;;;;4.95;1.20;;;;;;;;;;5012069;28;20026;-73
2022/02/20 05:21:18;;;;;;;6.00;1.50;;;;;;;;;;5010930;28;20033;-73
2022/02/20 05:23:44;;;;;;;3.65;1.00;;;;;;;;;;5011238;28;20036;-72
2022/02/20 05:26:11;;;;;;;6.55;1.30;;;;;;;;;;5012324;28;20041;-73
2022/02/20 05:28:37;;;;;;;3.17;0.95;;;;;;;;;;5011769;28;20021;-72
2022/02/20 05:31:03;;;;;;;8.55;3.78;;;;;;;;;;5012840;28;20036;-72
2022/02/20 05:33:29;;;;;;;4.88;1.58;;;;;;;;;;5015015;28;20021;-73
2022/02/20 05:35:55;;;;;;;2.63;1.08;;;;;;;;;;5015525;28;20022;-72
2022/02/20 05:38:21;;;;;;;4.20;2.05;;;;;;;;;;5014283;28;20044;-72
2022/02/20 05:40:47;;;;;;;8.23;2.05;;;;;;;;;;5015749;28;20104;-72
2022/02/20 05:43:13;;;;;;;8.43;2.58;;;;;;;;;;5014666;28;20026;-72
2022/02/20 05:45:39;;;;;;;6.88;2.00;;;;;;;;;;5015300;28;20030;-71
2022/02/20 05:48:05;;;;;;;6.05;2.58;;;;;;;;;;5015454;28;20491;-72
2022/02/20 05:50:31;;;;;;;5.72;2.33;;;;;;;;;;5015401;28;20080;-72
2022/02/20 05:52:57;;;;;;;12.93;3.30;;;;;;;;;;5013372;28;20061;-72
2022/02/20 05:55:23;;;;;;;12.07;3.15;;;;;;;;;;5014936;28;20045;-72
2022/02/20 05:57:53;;;;;;;3.88;1.88;;;;;;;;;;5015156;28;20527;-73
2022/02/20 06:00:20;;;;;;;7.35;2.60;;;;;;;;;;5015268;28;20022;-72
2022/02/20 06:02:46;;;;;;;5.90;1.63;;;;;;;;;;5014619;28;20033;-71
2022/02/20 06:05:13;;;;;;;4.53;1.50;;;;;;;;;;5014969;28;20026;-72
2022/02/20 06:07:39;;;;;;;6.72;1.50;;;;;;;;;;5015174;28;20034;-73
2022/02/20 06:10:06;;;;;;;3.65;1.60;;;;;;;;;;5015011;28;20096;-72
2022/02/20 06:12:32;;;;;;;3.65;1.77;;;;;;;;;;5014876;28;20468;-72
2022/02/20 06:14:58;;;;;;;6.50;1.63;;;;;;;;;;5013884;28;20026;-73
2022/02/20 06:17:24;;;;;;;5.00;1.80;;;;;;;;;;5015404;28;20380;-72
2022/02/20 06:19:50;;;;;;;3.45;1.10;;;;;;;;;;5013105;28;20081;-72
2022/02/20 06:22:16;;;;;;;9.27;1.55;;;;;;;;;;5014890;28;20507;-73
2022/02/20 06:24:42;;;;;;;4.10;2.20;;;;;;;;;;5014265;28;20033;-72
2022/02/20 06:27:08;;;;;;;6.32;1.75;;;;;;;;;;5014499;28;20022;-72
2022/02/20 06:29:34;;;;;;;4.57;1.67;;;;;;;;;;5014797;28;20014;-72
2022/02/20 06:32:01;;;;;;;6.28;1.92;;;;;;;;;;5014507;28;20024;-73
2022/02/20 06:34:27;;;;;;;2.88;1.42;;;;;;;;;;5014193;28;20030;-72
2022/02/20 06:36:53;;;;;;;8.27;1.58;;;;;;;;;;5014770;28;20073;-72
2022/02/20 06:39:19;;;;;;;4.13;1.38;;;;;;;;;;5014814;28;20494;-73
2022/02/20 06:41:45;;;;;;;2.70;1.27;;;;;;;;;;5014546;28;20026;-72
2022/02/20 06:44:11;;;;;;;2.45;1.40;;;;;;;;;;5012501;28;20084;-73
2022/02/20 06:46:37;;;;;;;5.63;1.73;;;;;;;;;;5012901;28;20069;-72
2022/02/20 06:49:07;;;;;;;3.90;1.60;;;;;;;;;;5013144;28;20495;-72
2022/02/20 06:51:33;;;;;;;7.90;1.85;;;;;;;;;;5014415;28;20506;-71
2022/02/20 06:53:58;;;;;;;3.83;1.73;;;;;;;;;;5013559;28;20061;-71
2022/02/20 06:56:24;;;;;;;7.78;2.38;;;;;;;;;;5012906;28;20096;-71
2022/02/20 06:58:50;;;;;;;1.90;1.50;;;;;;;;;;5014710;28;20041;-71
2022/02/20 07:01:17;;;;;;;4.93;1.90;;;;;;;;;;5014423;28;20022;-72
2022/02/20 07:03:43;;;;;;;1.55;0.90;;;;;;;;;;5013887;28;20096;-71
2022/02/20 07:06:09;;;;;;;7.57;1.33;;;;;;;;;;5014796;28;20484;-71
2022/02/20 07:08:35;;;;;;;1.05;0.95;;;;;;;;;;5013877;28;20451;-72
2022/02/20 07:11:01;;;;;;;3.22;0.95;;;;;;;;;;5014434;28;20030;-72
2022/02/20 07:13:27;;;;;;;5.05;1.50;;;;;;;;;;5013627;28;20032;-72
2022/02/20 07:15:53;;;;;;;6.05;1.73;;;;;;;;;;5013732;28;20480;-72
2022/02/20 07:18:19;;;;;;;6.38;1.80;;;;;;;;;;5015211;28;20391;-72
2022/02/20 07:20:45;;;;;;;5.63;1.60;;;;;;;;;;5013527;28;20029;-72
2022/02/20 07:23:11;;;;;;;8.73;2.65;;;;;;;;;;5014502;28;20113;-72
2022/02/20 07:25:38;;;;;;;8.18;2.17;;;;;;;;;;5014294;28;20030;-71
2022/02/20 07:28:04;;;;;;;6.78;1.67;;;;;;;;;;5013962;28;20056;-72
2022/02/20 07:30:30;;;;;;;2.90;1.50;;;;;;;;;;5013876;28;20381;-71
2022/02/20 07:32:57;;;;;;;6.20;2.88;;;;;;;;;;5012319;28;20076;-71
2022/02/20 07:35:23;;;;;;;4.43;1.73;;;;;;;;;;5013474;28;20152;-72
2022/02/20 07:37:49;;;;;;;3.22;1.73;;;;;;;;;;5013471;28;20029;-72
2022/02/20 07:40:16;;;;;;;7.05;1.80;;;;;;;;;;5015491;28;20024;-73
2022/02/20 07:42:42;;;;;;;5.00;2.08;;;;;;;;;;5013940;28;20105;-72
2022/02/20 07:45:09;;;;;;;6.38;2.10;;;;;;;;;;5013458;28;20026;-73
2022/02/20 07:47:55;;;;;;;4.18;1.70;;;;;;;;;;5013277;28;20550;-73
2022/02/20 07:50:22;;;;;;;4.90;1.42;;;;;;;;;;5013187;28;20026;-72
2022/02/20 07:52:48;;;;;;;6.35;1.83;;;;;;;;;;5011097;28;20025;-71
2022/02/20 07:55:15;;;;;;;8.00;1.83;;;;;;;;;;5012152;28;20073;-72
2022/02/20 07:57:44;;;;;;;3.85;1.23;;;;;;;;;;5013176;28;20484;-72
2022/02/20 08:00:11;;;;;;;4.43;1.48;;;;;;;;;;5013350;28;20034;-73
2022/02/20 08:02:36;;;;;;;4.13;1.52;;;;;;;;;;5011756;28;20030;-72
2022/02/20 08:05:04;;;;;;;6.18;1.60;;;;;;;;;;5011900;28;20026;-72
2022/02/20 08:07:30;;;;;;;1.95;1.17;;;;;;;;;;5012748;28;20054;-72
2022/02/20 08:09:56;;;;;;;5.75;1.55;;;;;;;;;;5012774;28;20045;-72
2022/02/20 08:12:23;;;;;;;4.20;1.38;;;;;;;;;;5012751;28;20033;-73
2022/02/20 08:14:49;;;;;;;1.67;1.20;;;;;;;;;;5012181;28;20049;-71
2022/02/20 08:17:15;;;;;;;5.63;1.67;;;;;;;;;;5012737;28;20033;-71
2022/02/20 08:19:41;;;;;;;4.38;1.50;;;;;;;;;;5011472;28;20091;-72
2022/02/20 08:22:07;;;;;;;5.70;1.42;;;;;;;;;;5013965;28;20376;-72
2022/02/20 08:24:33;;;;;;;3.17;1.42;;;;;;;;;;5012585;28;20443;-72
2022/02/20 08:26:58;;;;;;;5.43;1.60;;;;;;;;;;5012500;28;20041;-72
2022/02/20 08:29:27;;;;;;;4.15;1.30;;;;;;;;;;5012485;28;20080;-72
2022/02/20 08:31:53;;;;;;;5.10;1.73;;;;;;;;;;5012302;28;20026;-72
2022/02/20 08:34:20;;;;;;;3.92;1.60;;;;;;;;;;5011583;28;20084;-72
2022/02/20 08:36:46;;;;;;;4.88;1.33;;;;;;;;;;5012246;28;20152;-71
2022/02/20 08:39:12;;;;;;;5.57;1.67;;;;;;;;;;5012195;28;20058;-70
2022/02/20 08:41:39;;;;;;;3.90;1.55;;;;;;;;;;5012218;28;20395;-72
2022/02/20 08:44:05;;;;;;;5.88;1.63;;;;;;;;;;5011140;28;20499;-71
2022/02/20 08:46:31;;;;;;;3.80;1.20;;;;;;;;;;5011455;28;20109;-72
2022/02/20 08:48:58;;;;;;;6.78;2.10;;;;;;;;;;5011799;28;20468;-72
2022/02/20 08:51:23;;;;;;;6.00;1.85;;;;;;;;;;5012065;28;20022;-73
2022/02/20 08:53:52;;;;;;;5.32;1.60;;;;;;;;;;5011265;28;20392;-73
2022/02/20 08:56:19;;;;;;;7.05;1.83;;;;;;;;;;5034742;23;20054;-70
2022/02/20 08:58:51;;;;;;;7.03;1.67;;;;;;;;;;5012279;28;20030;-71
2022/02/20 09:01:20;;;;;;;5.38;1.52;;;;;;;;;;5012106;28;20036;-70
2022/02/20 09:03:46;;;;;;;3.17;1.10;;;;;;;;;;5011243;28;20028;-71
2022/02/20 09:06:12;;;;;;;5.82;1.60;;;;;;;;;;5010697;28;20076;-70
2022/02/20 09:08:38;;;;;;;2.85;1.35;;;;;;;;;;5012156;28;20022;-71
2022/02/20 09:11:04;;;;;;;6.82;2.15;;;;;;;;;;5012635;28;20045;-71
2022/02/20 09:13:30;;;;;;;4.18;1.25;;;;;;;;;;5011763;28;20025;-71
2022/02/20 09:15:56;;;;;;;5.93;1.98;;;;;;;;;;5012128;28;20022;-71
2022/02/20 09:18:22;;;;;;;4.47;1.42;;;;;;;;;;5012371;28;20085;-70
2022/02/20 09:20:48;;;;;;;3.03;1.48;;;;;;;;;;5010183;28;20036;-71
2022/02/20 09:23:14;;;;;;;6.47;1.98;;;;;;;;;;5011165;28;20322;-71
2022/02/20 09:25:42;;;;;;;4.88;1.50;;;;;;;;;;5011698;28;20030;-70
2022/02/20 09:28:08;;;;;;;4.38;1.70;;;;;;;;;;5012000;28;20030;-70
2022/02/20 09:30:34;;;;;;;6.63;2.00;;;;;;;;;;5012118;28;20030;-71
2022/02/20 09:33:00;;;;;;;5.05;1.80;;;;;;;;;;5010927;28;20464;-68
2022/02/20 09:35:29;;;;;;;5.78;1.40;;;;;;;;;;5010050;28;20058;-70
2022/02/20 09:37:55;;;;;;;4.07;1.40;;;;;;;;;;5011605;28;20058;-71
2022/02/20 09:40:21;;;;;;;6.40;1.83;;;;;;;;;;5011533;28;20085;-70
2022/02/20 09:42:49;;;;;;;3.20;1.10;;;;;;;;;;5011292;28;20038;-71
2022/02/20 09:45:15;;;;;;;3.17;1.05;;;;;;;;;;5011357;28;20025;-72
2022/02/20 09:47:42;;;;;;;9.73;3.08;;;;;;;;;;5011568;28;20499;-71
2022/02/20 09:50:08;;;;;;;4.68;1.42;;;;;;;;;;5010412;28;20036;-71
2022/02/20 09:52:34;;;;;;;8.25;1.95;;;;;;;;;;5011401;28;20029;-70
2022/02/20 09:55:00;;;;;;;3.92;1.40;;;;;;;;;;5009432;28;20392;-71
2022/02/20 09:57:26;;;;;;;5.70;1.92;;;;;;;;;;5011614;28;20033;-71
2022/02/20 09:59:52;;;;;;;5.13;1.50;;;;;;;;;;5011706;28;20116;-70
2022/02/20 10:02:19;;;;;;;4.40;1.48;;;;;;;;;;5011891;28;20066;-71
2022/02/20 10:04:47;;;;;;;6.30;1.33;;;;;;;;;;5011228;28;20026;-71
2022/02/20 10:07:25;;;;;;;3.55;1.52;;;;;;;;;;5011336;28;20105;-72
2022/02/20 10:09:52;;;;;;;3.78;1.20;;;;;;;;;;5012164;28;20045;-70
2022/02/20 10:12:19;;;;;;;7.00;1.90;;;;;;;;;;5011732;28;20026;-71
2022/02/20 10:14:45;;;;;;;5.22;1.73;;;;;;;;;;5011063;28;20543;-71
2022/02/20 10:17:15;;;;;;;2.88;1.35;;;;;;;;;;5012825;28;20036;-71
2022/02/20 10:19:51;;;;;;;5.15;1.65;;;;;;;;;;5013203;28;20030;-70
2022/02/20 10:22:30;;;;;;;5.40;1.58;;;;;;;;;;5015188;28;20034;-71
2022/02/20 10:25:00;;;;;;;4.35;1.40;;;;;;;;;;5012816;28;20451;-70
2022/02/20 10:27:26;;;;;;;6.93;1.60;;;;;;;;;;5013298;28;20026;-71
2022/02/20 10:30:11;;;;;;;4.43;1.48;;;;;;;;;;5014622;28;20018;-71
2022/02/20 10:32:37;;;;;;;3.85;1.48;;;;;;;;;;5013629;28;20431;-71
2022/02/20 10:35:10;;;;;;;3.70;1.10;;;;;;;;;;5013754;28;20029;-71
2022/02/20 10:37:36;;;;;;;3.38;1.02;;;;;;;;;;5014373;28;20602;-71
2022/02/20 10:40:02;;;;;;;2.55;0.88;;;;;;;;;;5014465;28;20030;-71
2022/02/20 10:42:28;;;;;;;6.60;1.50;;;;;;;;;;5013118;28;20281;-71
2022/02/20 10:44:54;;;;;;;4.35;1.65;;;;;;;;;;5013899;28;20022;-71
2022/02/20 10:47:21;;;;;;;4.80;1.52;;;;;;;;;;5014423;28;20518;-71
2022/02/20 10:49:47;;;;;;;11.30;2.65;;;;;;;;;;5014384;28;20120;-71
2022/02/20 10:52:27;;;;;;;6.38;1.55;;;;;;;;;;5014174;28;20057;-71
2022/02/20 10:55:07;;;;;;;5.05;1.52;;;;;;;;;;5013335;28;20037;-71
2022/02/20 10:57:38;;;;;;;4.63;1.10;;;;;;;;;;5014628;28;20154;-70
2022/02/20 11:00:09;;;;;;;6.47;1.40;;;;;;;;;;5014193;28;20033;-72
2022/02/20 11:02:35;;;;;;;3.40;1.33;;;;;;;;;;5014230;28;20265;-71
2022/02/20 11:05:02;;;;;;;5.05;1.25;;;;;;;;;;5013314;28;20049;-70
2022/02/20 11:07:29;;;;;;;4.85;1.48;;;;;;;;;;5013746;28;20030;-71
2022/02/20 11:09:56;;;;;;;5.47;1.40;;;;;;;;;;5014050;28;20105;-72
2022/02/20 11:12:22;;;;;;;3.15;0.73;;;;;;;;;;5014065;28;20029;-72
2022/02/20 11:14:53;;;;;;;3.65;1.30;;;;;;;;;;5012837;28;20032;-70
2022/02/20 11:17:21;;;;;;;5.18;0.98;;;;;;;;;;5013970;28;20032;-71
2022/02/20 11:19:48;;;;;;;2.53;0.88;;;;;;;;;;5012551;28;20064;-69
2022/02/20 11:22:14;;;;;;;5.88;2.30;;;;;;;;;;5013799;28;20041;-71
2022/02/20 11:24:40;;;;;;;5.20;1.45;;;;;;;;;;5012993;28;20069;-71
2022/02/20 11:27:09;;;;;;;6.97;2.42;;;;;;;;;;5013431;28;20442;-71
2022/02/20 11:29:35;;;;;;;3.50;1.20;;;;;;;;;;5012642;28;20503;-70
2022/02/20 11:32:01;;;;;;;4.18;1.73;;;;;;;;;;5012096;28;20061;-70
2022/02/20 11:34:27;;;;;;;8.02;2.22;;;;;;;;;;5012529;28;20049;-70
2022/02/20 11:36:58;;;;;;;4.82;1.13;;;;;;;;;;5013234;28;20498;-71
2022/02/20 11:39:24;;;;;;;3.40;1.57;;;;;;;;;;5013385;28;20034;-72
2022/02/20 11:42:06;;;;;;;6.55;2.35;;;;;;;;;;5013290;28;20312;-70
2022/02/20 11:44:52;;;;;;;5.75;1.70;;;;;;;;;;5012530;28;20034;-71
2022/02/20 11:47:38;;;;;;;8.35;2.08;;;;;;;;;;5013269;28;20447;-71
2022/02/20 11:50:18;;;;;;;4.28;1.60;;;;;;;;;;5013255;28;20540;-71
2022/02/20 11:52:45;;;;;;;6.60;2.10;;;;;;;;;;5012643;28;20057;-71
2022/02/20 11:55:14;;;;;;;2.22;1.17;;;;;;;;;;5013081;28;20107;-73
2022/02/20 11:57:40;;;;;;;2.35;1.23;;;;;;;;;;5013366;28;20037;-71
2022/02/20 12:00:07;;;;;;;8.18;1.88;;;;;;;;;;5013049;28;20030;-70
2022/02/20 12:02:34;;;;;;;7.30;1.67;;;;;;;;;;5012863;28;20445;-70
2022/02/20 12:05:00;;;;;;;6.88;1.70;;;;;;;;;;5011879;28;20061;-71
2022/02/20 12:07:29;;;;;;;5.40;1.38;;;;;;;;;;5012632;28;20109;-71
2022/02/20 12:10:14;;;;;;;3.67;1.60;;;;;;;;;;5012959;28;20177;-71
2022/02/20 12:12:40;;;;;;;5.68;1.38;;;;;;;;;;5012551;28;20480;-71
2022/02/20 12:15:25;;;;;;;3.38;1.38;;;;;;;;;;5012244;28;20053;-71
2022/02/20 12:18:03;;;;;;;4.93;1.25;;;;;;;;;;5012983;28;20117;-71
2022/02/20 12:20:48;;;;;;;3.13;1.15;;;;;;;;;;5012471;28;20057;-70
2022/02/20 12:23:32;;;;;;;8.82;1.65;;;;;;;;;;5013813;28;20049;-71
2022/02/20 12:26:00;;;;;;;6.25;1.70;;;;;;;;;;5012769;28;20033;-70
2022/02/20 12:28:32;;;;;;;3.28;1.17;;;;;;;;;;5012688;28;20030;-71
2022/02/20 12:30:58;;;;;;;9.27;1.58;;;;;;;;;;5012798;28;20395;-71
2022/02/20 12:33:31;;;;;;;2.72;1.45;;;;;;;;;;5011891;28;20041;-71
2022/02/20 12:35:57;;;;;;;5.45;2.00;;;;;;;;;;5012547;28;20033;-72
2022/02/20 12:38:23;;;;;;;6.85;1.80;;;;;;;;;;5011172;28;20026;-70
2022/02/20 12:40:50;;;;;;;2.78;0.85;;;;;;;;;;5010877;28;20045;-70
2022/02/20 12:43:17;;;;;;;3.00;0.80;;;;;;;;;;5010368;28;20400;-71
2022/02/20 12:45:46;;;;;;;2.08;1.00;;;;;;;;;;5012179;28;20033;-71
2022/02/20 12:48:14;;;;;;;2.65;0.95;;;;;;;;;;5012220;28;20112;-71
2022/02/20 12:50:48;;;;;;;3.20;1.00;;;;;;;;;;5012237;28;20032;-70
2022/02/20 12:53:18;;;;;;;2.65;0.80;;;;;;;;;;5011218;28;20046;-71
2022/02/20 12:55:45;;;;;;;4.18;1.40;;;;;;;;;;5011923;28;20524;-70
2022/02/20 12:58:11;;;;;;;2.42;0.93;;;;;;;;;;5012171;28;20084;-71
2022/02/20 13:00:48;;;;;;;1.42;0.90;;;;;;;;;;5012223;28;20088;-71
2022/02/20 13:03:21;;;;;;;1.05;0.52;;;;;;;;;;5010071;28;20026;-70
2022/02/20 13:05:51;;;;;;;1.83;1.05;;;;;;;;;;5011766;28;20030;-69
2022/02/20 13:08:18;;;;;;;2.53;1.00;;;;;;;;;;5010642;28;20072;-70
2022/02/20 13:10:45;;;;;;;0.88;0.52;;;;;;;;;;5010690;28;20026;-71
2022/02/20 13:13:40;;;;;;;2.72;0.70;;;;;;;;;;5011573;28;20100;-71
2022/02/20 13:16:13;;;;;;;0.95;0.50;;;;;;;;;;5003397;28;20058;-70
2022/02/20 13:18:39;;;;;;;0.82;0.47;;;;;;;;;;5012287;28;20026;-71
2022/02/20 13:21:10;;;;;;;1.80;0.70;;;;;;;;;;5011029;28;20488;-71
2022/02/20 13:23:36;;;;;;;0.90;0.60;;;;;;;;;;5011301;28;20080;-70
2022/02/20 13:26:05;;;;;;;1.20;0.52;;;;;;;;;;5011788;28;20273;-71
2022/02/20 13:28:32;;;;;;;2.70;1.00;;;;;;;;;;5012173;28;20040;-70
2022/02/20 13:31:06;;;;;;;1.90;0.90;;;;;;;;;;5011608;28;20022;-71
2022/02/20 13:33:33;;;;;;;0.80;0.50;;;;;;;;;;5010966;28;20030;-71
2022/02/20 13:36:03;;;;;;;1.33;0.55;;;;;;;;;;5011213;28;20029;-71
2022/02/20 13:38:30;;;;;;;4.53;1.17;;;;;;;;;;5011587;28;20022;-71
2022/02/20 13:40:57;;;;;;;0.43;0.40;;;;;;;;;;5011737;28;20476;-71
2022/02/20 13:43:37;;;;;;;1.55;0.50;;;;;;;;;;5010982;28;20383;-71
2022/02/20 13:46:03;;;;;;;0.80;0.40;;;;;;;;;;5010260;28;20499;-71
2022/02/20 13:48:29;;;;;;;1.17;0.30;;;;;;;;;;5011615;28;20451;-71
2022/02/20 13:51:10;;;;;;;0.80;0.25;;;;;;;;;;5010577;28;20165;-71
2022/02/20 13:53:46;;;;;;;1.27;0.40;;;;;;;;;;5014257;28;20026;-71
2022/02/20 13:56:13;;;;;;;0.85;0.45;;;;;;;;;;5015112;28;20030;-71
2022/02/20 13:58:41;;;;;;;0.88;0.25;;;;;;;;;;5015400;28;20026;-71
2022/02/20 14:01:07;;;;;;;0.80;0.40;;;;;;;;;;5015057;28;20018;-71
2022/02/20 14:03:37;;;;;;;0.80;0.43;;;;;;;;;;5014515;28;20037;-71
2022/02/20 14:06:04;;;;;;;2.78;0.10;;;;;;;;;;5015011;28;20033;-71
2022/02/20 14:08:30;;;;;;;0.30;0.20;;;;;;;;;;5015104;28;20037;-71
2022/02/20 14:10:57;;;;;;;0.47;0.30;;;;;;;;;;5015083;28;20388;-71
2022/02/20 14:13:23;;;;;;;0.43;0.22;;;;;;;;;;5014386;28;20026;-71
2022/02/20 14:15:59;;;;;;;0.60;0.40;;;;;;;;;;5015180;28;20030;-71
2022/02/20 14:18:25;;;;;;;1.13;0.38;;;;;;;;;;5015081;28;20026;-71
2022/02/20 14:20:53;;;;;;;1.30;0.40;;;;;;;;;;5013258;28;20040;-71
2022/02/20 14:23:19;;;;;;;1.15;0.40;;;;;;;;;;5014337;28;20037;-71
2022/02/20 14:25:54;;;;;;;0.35;0.20;;;;;;;;;;5014693;28;20026;-71
2022/02/20 14:28:23;;;;;;;0.88;0.45;;;;;;;;;;5014837;28;20065;-70
2022/02/20 14:30:53;;;;;;;0.93;0.40;;;;;;;;;;5013462;28;20045;-71
2022/02/20 14:33:20;;;;;;;0.50;0.30;;;;;;;;;;5014114;28;20154;-71
2022/02/20 14:35:49;;;;;;;0.88;0.60;;;;;;;;;;5013134;28;20041;-71
2022/02/20 14:38:16;;;;;;;0.10;0.10;;;;;;;;;;5014368;28;20066;-70
2022/02/20 14:40:43;;;;;;;0.75;0.30;;;;;;;;;;5013284;28;20025;-70
2022/02/20 14:43:12;;;;;;;0.70;0.55;;;;;;;;;;5013566;28;20499;-71
2022/02/20 14:45:42;;;;;;;0.98;0.13;;;;;;;;;;5013028;28;20480;-71